Time;durP1;ratioP1;P1;durP2;ratioP2;P2;SDS_P1;SDS_P2;PMS_P1;PMS_P2;Temp;Humidity;BMP_temperature;BMP_pressure;BME280_temperature;BME280_humidity;BME280_pressure;Samples;Min_cycle;Max_cycle;Signal;HPM_P1;HPM_P2
2023/03/16 00:01:42;;;;;;;9.50;3.42;;;5.80;93.70;;;;;;4983101;28;20045;-86
2023/03/16 00:04:08;;;;;;;13.52;3.63;;;5.80;93.90;;;;;;4980342;28;20014;-86
2023/03/16 00:06:35;;;;;;;9.07;3.42;;;5.80;93.80;;;;;;5000270;28;20030;-84
2023/03/16 00:09:01;;;;;;;11.30;3.85;;;5.70;93.90;;;;;;4997981;28;20022;-85
2023/03/16 00:11:27;;;;;;;7.82;3.28;;;5.70;94.10;;;;;;4980010;28;20065;-85
2023/03/16 00:13:53;;;;;;;9.98;4.10;;;5.70;94.30;;;;;;4999185;28;20025;-86
2023/03/16 00:16:18;;;;;;;10.20;3.42;;;5.80;94.30;;;;;;4981112;28;20235;-84
2023/03/16 00:18:44;;;;;;;11.80;3.70;;;5.70;94.30;;;;;;4981936;28;20029;-85
2023/03/16 00:21:12;;;;;;;11.80;3.50;;;5.60;94.50;;;;;;4983978;28;20249;-87
2023/03/16 00:23:38;;;;;;;11.32;3.33;;;5.70;94.80;;;;;;4997401;28;20089;-83
2023/03/16 00:26:07;;;;;;;10.95;3.55;;;5.70;95.00;;;;;;4997071;28;20045;-83
2023/03/16 00:28:35;;;;;;;8.27;3.67;;;5.70;95.10;;;;;;4996466;28;20046;-84
2023/03/16 00:31:10;;;;;;;7.63;3.40;;;5.70;95.10;;;;;;4997685;28;20029;-85
2023/03/16 00:33:37;;;;;;;9.88;3.78;;;5.70;95.10;;;;;;4980742;28;20048;-88
2023/03/16 00:36:06;;;;;;;13.65;3.90;;;5.70;95.30;;;;;;4982690;28;20025;-86
2023/03/16 00:38:35;;;;;;;10.48;3.78;;;5.70;95.30;;;;;;4998230;28;20057;-86
2023/03/16 00:41:03;;;;;;;6.95;3.90;;;5.70;95.40;;;;;;4983612;28;20014;-86
2023/03/16 00:43:39;;;;;;;9.70;3.50;;;5.70;95.50;;;;;;4980372;28;20071;-85
2023/03/16 00:46:09;;;;;;;6.57;3.15;;;5.70;95.60;;;;;;4999820;28;20029;-84
2023/03/16 00:48:37;;;;;;;12.40;4.00;;;5.70;96.00;;;;;;4995885;28;20370;-83
2023/03/16 00:51:05;;;;;;;9.00;3.20;;;5.70;95.60;;;;;;4996684;28;20074;-83
2023/03/16 00:53:35;;;;;;;7.07;3.03;;;5.80;95.80;;;;;;4979517;28;20030;-82
2023/03/16 00:56:04;;;;;;;7.45;3.20;;;5.90;95.70;;;;;;4996129;28;20022;-83
2023/03/16 00:58:34;;;;;;;8.05;2.53;;;5.80;95.60;;;;;;4998356;28;20041;-83
2023/03/16 01:01:13;;;;;;;9.55;2.80;;;5.90;95.70;;;;;;4985780;28;20037;-83
2023/03/16 01:03:39;;;;;;;8.63;2.75;;;5.90;95.80;;;;;;5002593;28;20045;-83
2023/03/16 01:06:11;;;;;;;15.30;3.08;;;5.90;95.80;;;;;;5004784;28;20030;-83
2023/03/16 01:08:39;;;;;;;7.75;3.20;;;5.90;95.90;;;;;;4979936;28;20602;-83
2023/03/16 01:11:15;;;;;;;7.07;2.80;;;5.90;96.00;;;;;;4997702;28;20468;-83
2023/03/16 01:13:41;;;;;;;5.53;2.70;;;6.00;96.00;;;;;;4995675;28;20164;-84
2023/03/16 01:16:08;;;;;;;8.05;2.78;;;6.00;96.10;;;;;;4984654;28;20021;-84
2023/03/16 01:18:34;;;;;;;7.43;3.00;;;6.00;96.00;;;;;;4998392;28;20022;-85
2023/03/16 01:21:05;;;;;;;8.13;2.65;;;6.10;95.90;;;;;;4981561;28;20044;-84
2023/03/16 01:23:31;;;;;;;5.15;2.35;;;6.10;95.80;;;;;;4984599;28;20032;-85
2023/03/16 01:25:58;;;;;;;5.20;2.50;;;6.10;95.70;;;;;;4981913;28;20030;-83
2023/03/16 01:28:28;;;;;;;4.70;2.88;;;6.10;95.90;;;;;;4995416;28;20059;-83
2023/03/16 01:30:58;;;;;;;9.45;3.15;;;6.10;96.00;;;;;;4979168;28;20497;-83
2023/03/16 01:33:25;;;;;;;10.48;3.60;;;6.20;96.00;;;;;;4998479;28;20115;-82
2023/03/16 01:35:55;;;;;;;10.38;3.65;;;6.20;96.00;;;;;;5000352;28;20022;-83
2023/03/16 01:38:21;;;;;;;7.07;2.90;;;6.20;95.90;;;;;;5009354;28;20497;-82
2023/03/16 01:40:51;;;;;;;9.65;3.13;;;6.20;95.90;;;;;;5002081;28;20032;-82
2023/03/16 01:43:20;;;;;;;7.13;2.80;;;6.20;95.90;;;;;;4989303;28;20025;-84
2023/03/16 01:46:04;;;;;;;6.07;2.72;;;6.20;95.80;;;;;;5027065;28;20029;-84
2023/03/16 01:48:55;;;;;;;5.03;3.13;;;6.30;95.90;;;;;;5023845;28;20034;-83
2023/03/16 01:51:33;;;;;;;6.75;2.60;;;6.30;96.00;;;;;;5014609;28;20057;-83
2023/03/16 01:54:05;;;;;;;12.90;3.05;;;6.30;96.10;;;;;;5023410;28;20031;-84
2023/03/16 01:56:44;;;;;;;7.25;3.22;;;6.30;96.20;;;;;;5028679;28;20598;-83
2023/03/16 01:59:17;;;;;;;11.80;3.63;;;6.30;96.20;;;;;;5009072;28;20038;-83
2023/03/16 02:01:44;;;;;;;9.38;3.40;;;6.30;96.30;;;;;;5000713;28;20072;-84
2023/03/16 02:04:23;;;;;;;8.30;3.45;;;6.30;96.30;;;;;;4986305;28;20129;-85
2023/03/16 02:06:50;;;;;;;8.50;3.35;;;6.30;96.40;;;;;;4999981;28;20121;-83
2023/03/16 02:09:18;;;;;;;13.32;3.40;;;6.40;96.60;;;;;;4997587;28;20046;-85
2023/03/16 02:11:46;;;;;;;10.15;3.35;;;6.30;96.50;;;;;;4977486;28;20442;-84
2023/03/16 02:14:13;;;;;;;6.15;3.20;;;6.40;96.70;;;;;;4972989;28;20052;-83
2023/03/16 02:16:40;;;;;;;5.72;2.70;;;6.40;96.70;;;;;;4982803;28;20547;-83
2023/03/16 02:19:18;;;;;;;15.25;3.33;;;6.40;96.70;;;;;;4997568;28;20030;-83
2023/03/16 02:22:06;;;;;;;11.50;3.30;;;6.40;96.70;;;;;;4999641;28;20034;-84
2023/03/16 02:24:31;;;;;;;11.23;4.05;;;6.40;96.70;;;;;;4998682;28;20032;-83
2023/03/16 02:27:10;;;;;;;7.53;2.80;;;6.40;96.80;;;;;;4983386;28;20037;-83
2023/03/16 02:29:58;;;;;;;9.18;3.45;;;6.40;96.80;;;;;;4997796;28;20045;-83
2023/03/16 02:32:25;;;;;;;5.65;2.38;;;6.40;96.90;;;;;;5001200;28;20545;-84
2023/03/16 02:34:52;;;;;;;8.43;3.35;;;6.40;96.90;;;;;;4997448;28;20389;-83
2023/03/16 02:37:17;;;;;;;4.63;3.17;;;6.40;97.00;;;;;;4996098;28;20026;-83
2023/03/16 02:39:43;;;;;;;8.05;3.38;;;6.40;96.90;;;;;;4984442;28;20494;-83
2023/03/16 02:42:18;;;;;;;6.90;3.17;;;6.40;96.90;;;;;;4980964;28;20147;-83
2023/03/16 02:44:49;;;;;;;9.32;3.35;;;6.40;97.10;;;;;;4984273;28;20548;-83
2023/03/16 02:47:37;;;;;;;9.95;3.00;;;6.40;97.10;;;;;;4998014;28;20109;-82
2023/03/16 02:50:07;;;;;;;7.85;2.80;;;6.40;97.10;;;;;;4982815;28;20116;-82
2023/03/16 02:52:37;;;;;;;14.75;3.33;;;6.40;97.20;;;;;;4977263;28;20067;-82
2023/03/16 02:55:05;;;;;;;11.70;3.17;;;6.40;97.20;;;;;;4996642;28;20061;-82
2023/03/16 02:57:30;;;;;;;8.63;3.15;;;6.40;97.40;;;;;;4995926;28;20100;-82
2023/03/16 02:59:56;;;;;;;8.27;3.40;;;6.30;97.50;;;;;;4979770;28;20030;-84
2023/03/16 03:02:22;;;;;;;6.93;3.00;;;6.40;97.50;;;;;;4982967;28;20502;-84
2023/03/16 03:04:48;;;;;;;11.50;3.30;;;6.40;97.60;;;;;;4982029;28;20034;-84
2023/03/16 03:07:14;;;;;;;11.80;3.38;;;6.40;97.50;;;;;;4998717;28;20025;-84
2023/03/16 03:09:43;;;;;;;8.38;3.80;;;6.40;97.50;;;;;;4998456;28;20038;-84
2023/03/16 03:12:12;;;;;;;6.45;3.38;;;6.40;97.60;;;;;;4981589;28;20061;-84
2023/03/16 03:14:38;;;;;;;8.95;3.17;;;6.40;97.60;;;;;;5000111;28;20062;-85
2023/03/16 03:17:08;;;;;;;5.00;2.70;;;6.40;97.60;;;;;;4981859;28;20076;-84
2023/03/16 03:19:35;;;;;;;12.52;3.55;;;6.40;97.50;;;;;;4982050;28;20029;-84
2023/03/16 03:22:05;;;;;;;7.20;3.40;;;6.40;97.60;;;;;;5000503;28;20105;-83
2023/03/16 03:24:31;;;;;;;2.65;2.20;;;6.40;97.60;;;;;;4979642;28;20022;-84
2023/03/16 03:26:59;;;;;;;6.53;2.85;;;6.40;97.50;;;;;;4979902;28;20034;-83
2023/03/16 03:29:33;;;;;;;7.20;3.10;;;6.40;97.60;;;;;;4980741;28;20037;-83
2023/03/16 03:32:00;;;;;;;6.32;3.08;;;6.50;97.50;;;;;;4982871;28;20022;-85
2023/03/16 03:34:26;;;;;;;6.13;3.35;;;6.40;97.60;;;;;;4982826;28;20026;-85
2023/03/16 03:36:52;;;;;;;7.85;2.85;;;6.40;97.50;;;;;;4980194;28;20429;-86
2023/03/16 03:39:18;;;;;;;9.00;2.78;;;6.50;97.50;;;;;;4983093;28;20037;-84
2023/03/16 03:41:43;;;;;;;7.25;2.80;;;6.50;97.60;;;;;;4999608;28;20034;-84
2023/03/16 03:44:09;;;;;;;8.15;2.72;;;6.50;97.40;;;;;;4982945;28;20022;-84
2023/03/16 03:46:35;;;;;;;4.88;2.55;;;6.50;97.30;;;;;;5001321;28;20030;-84
2023/03/16 03:49:04;;;;;;;6.00;3.15;;;6.50;97.30;;;;;;4996269;28;20629;-84
2023/03/16 03:51:32;;;;;;;7.53;2.50;;;6.50;97.50;;;;;;4983996;28;20022;-84
2023/03/16 03:53:58;;;;;;;10.20;3.08;;;6.50;97.50;;;;;;4981791;28;20033;-84
2023/03/16 03:56:25;;;;;;;10.75;3.38;;;6.50;97.30;;;;;;4994179;28;20023;-79
2023/03/16 03:58:51;;;;;;;14.23;3.92;;;6.50;98.40;;;;;;4997861;28;20037;-87
2023/03/16 04:01:16;;;;;;;7.63;2.58;;;6.60;97.90;;;;;;4982905;28;20489;-83
2023/03/16 04:03:42;;;;;;;9.45;3.30;;;6.60;97.30;;;;;;4998603;28;20478;-82
2023/03/16 04:06:08;;;;;;;6.05;2.40;;;6.60;97.20;;;;;;4982394;28;20026;-82
2023/03/16 04:08:34;;;;;;;5.43;2.45;;;6.60;97.20;;;;;;4981151;28;20049;-82
2023/03/16 04:11:00;;;;;;;4.97;2.35;;;6.50;97.10;;;;;;4979438;28;20084;-83
2023/03/16 04:13:26;;;;;;;10.52;3.45;;;6.50;97.30;;;;;;4981678;28;20026;-83
2023/03/16 04:15:56;;;;;;;7.15;2.80;;;6.50;97.20;;;;;;4998948;28;20018;-82
2023/03/16 04:18:22;;;;;;;5.53;2.80;;;6.50;97.30;;;;;;4979538;28;20032;-82
2023/03/16 04:20:48;;;;;;;6.25;2.70;;;6.50;97.10;;;;;;4979912;28;20018;-82
2023/03/16 04:23:15;;;;;;;7.20;2.95;;;6.50;97.30;;;;;;4987944;28;20728;-83
2023/03/16 04:25:41;;;;;;;6.13;2.47;;;6.50;97.10;;;;;;4982639;28;21415;-82
2023/03/16 04:28:06;;;;;;;5.53;2.15;;;6.50;97.20;;;;;;4997665;28;20037;-83
2023/03/16 04:30:33;;;;;;;7.47;2.78;;;6.60;97.20;;;;;;4977803;28;20076;-83
2023/03/16 04:32:59;;;;;;;4.57;2.25;;;6.50;97.00;;;;;;4980923;28;20033;-83
2023/03/16 04:35:25;;;;;;;8.07;2.55;;;6.50;97.10;;;;;;4997327;28;20355;-82
2023/03/16 04:37:51;;;;;;;6.38;2.35;;;6.50;97.10;;;;;;4996420;28;20029;-83
2023/03/16 04:40:17;;;;;;;5.95;2.60;;;6.50;97.10;;;;;;4997709;28;20026;-83
2023/03/16 04:42:45;;;;;;;3.47;2.33;;;6.50;97.00;;;;;;4979714;28;20033;-82
2023/03/16 04:45:11;;;;;;;8.45;2.63;;;6.50;97.20;;;;;;4995488;28;20022;-83
2023/03/16 04:47:38;;;;;;;6.88;2.63;;;6.50;97.30;;;;;;4981308;28;20034;-82
2023/03/16 04:50:04;;;;;;;8.75;2.30;;;6.50;97.40;;;;;;4997117;28;20028;-83
2023/03/16 04:52:33;;;;;;;2.85;2.40;;;6.50;97.60;;;;;;4980222;28;20506;-83
2023/03/16 04:55:01;;;;;;;4.30;2.10;;;6.40;97.60;;;;;;4997396;28;20028;-82
2023/03/16 04:57:27;;;;;;;6.72;2.50;;;6.50;97.60;;;;;;4979446;28;20549;-83
2023/03/16 04:59:52;;;;;;;3.25;2.40;;;6.40;97.70;;;;;;4980928;28;20113;-83
2023/03/16 05:02:18;;;;;;;7.43;2.58;;;6.40;97.90;;;;;;4979169;28;20026;-82
2023/03/16 05:04:44;;;;;;;3.97;2.97;;;6.40;97.90;;;;;;4994766;28;20129;-82
2023/03/16 05:07:10;;;;;;;3.95;2.72;;;6.40;98.10;;;;;;4997531;28;20132;-82
2023/03/16 05:09:36;;;;;;;5.88;2.42;;;6.40;98.20;;;;;;4981239;28;20042;-82
2023/03/16 05:12:01;;;;;;;4.53;2.50;;;6.40;98.10;;;;;;5001181;28;20029;-83
2023/03/16 05:14:27;;;;;;;6.35;2.67;;;6.40;98.10;;;;;;4982397;28;20057;-82
2023/03/16 05:16:52;;;;;;;6.50;2.70;;;6.40;98.10;;;;;;4984766;28;20014;-83
2023/03/16 05:19:18;;;;;;;5.95;2.47;;;6.40;98.30;;;;;;4986856;28;20394;-82
2023/03/16 05:21:44;;;;;;;4.03;2.35;;;6.40;98.30;;;;;;5001793;28;20033;-82
2023/03/16 05:24:11;;;;;;;4.45;2.60;;;6.30;98.40;;;;;;4984428;28;20026;-82
2023/03/16 05:26:37;;;;;;;6.88;2.65;;;6.30;98.60;;;;;;4982998;28;20018;-82
2023/03/16 05:29:04;;;;;;;7.80;2.85;;;6.30;98.60;;;;;;5000393;28;20863;-82
2023/03/16 05:31:34;;;;;;;4.38;2.67;;;6.30;98.70;;;;;;4985387;28;20485;-82
2023/03/16 05:34:01;;;;;;;6.43;2.70;;;6.30;98.60;;;;;;4984109;28;20022;-82
2023/03/16 05:36:26;;;;;;;5.72;2.50;;;6.30;98.80;;;;;;5000451;28;20033;-82
2023/03/16 05:38:52;;;;;;;5.65;2.65;;;6.30;98.70;;;;;;4985383;28;20022;-82
2023/03/16 05:41:20;;;;;;;5.13;3.03;;;6.30;98.70;;;;;;4999761;28;20029;-83
2023/03/16 05:43:46;;;;;;;3.88;2.65;;;6.30;98.70;;;;;;4984071;28;20517;-82
2023/03/16 05:46:12;;;;;;;8.43;3.25;;;6.30;98.80;;;;;;5002183;28;20022;-82
2023/03/16 05:48:38;;;;;;;7.82;2.72;;;6.20;98.80;;;;;;4999564;28;20029;-82
2023/03/16 05:51:04;;;;;;;2.88;2.10;;;6.30;98.80;;;;;;4991620;28;20089;-81
2023/03/16 05:53:34;;;;;;;4.75;2.75;;;6.30;99.00;;;;;;5000006;28;20354;-82
2023/03/16 05:56:00;;;;;;;2.55;2.33;;;6.30;98.90;;;;;;5001108;28;20797;-82
2023/03/16 05:58:27;;;;;;;6.82;2.83;;;6.40;98.80;;;;;;4983437;28;20045;-82
2023/03/16 06:00:54;;;;;;;5.40;2.70;;;6.40;98.80;;;;;;5000866;28;20018;-83
2023/03/16 06:03:21;;;;;;;5.03;3.33;;;6.40;98.90;;;;;;4981441;28;20029;-81
2023/03/16 06:05:47;;;;;;;6.25;2.30;;;6.40;98.90;;;;;;4984072;28;20036;-83
2023/03/16 06:08:15;;;;;;;7.43;3.05;;;6.40;99.00;;;;;;4999858;28;20121;-83
2023/03/16 06:10:43;;;;;;;5.80;2.72;;;6.40;99.00;;;;;;5000213;28;20030;-83
2023/03/16 06:13:08;;;;;;;6.95;2.38;;;6.50;99.10;;;;;;4984288;28;20452;-84
2023/03/16 06:15:36;;;;;;;5.47;3.05;;;6.50;98.90;;;;;;4999004;28;20496;-83
2023/03/16 06:18:02;;;;;;;8.70;2.83;;;6.50;99.00;;;;;;4984766;28;20049;-83
2023/03/16 06:20:27;;;;;;;9.05;3.58;;;6.40;99.10;;;;;;4980771;28;20533;-84
2023/03/16 06:22:53;;;;;;;9.60;2.67;;;6.50;99.20;;;;;;5000176;28;20482;-83
2023/03/16 06:25:19;;;;;;;5.88;3.33;;;6.50;99.20;;;;;;5000822;28;20018;-83
2023/03/16 06:27:45;;;;;;;9.80;3.30;;;6.50;99.10;;;;;;4998223;28;20030;-82
2023/03/16 06:30:12;;;;;;;5.63;3.08;;;6.60;99.20;;;;;;4999089;28;20037;-84
2023/03/16 06:32:40;;;;;;;6.20;3.05;;;6.50;99.00;;;;;;4996900;28;20097;-83
2023/03/16 06:35:08;;;;;;;6.90;3.10;;;6.60;99.10;;;;;;4982589;28;20026;-83
2023/03/16 06:37:34;;;;;;;5.10;3.50;;;6.60;99.10;;;;;;4999515;28;20022;-83
2023/03/16 06:39:59;;;;;;;3.90;3.10;;;6.60;99.10;;;;;;4980108;28;20033;-83
2023/03/16 06:42:27;;;;;;;8.25;3.10;;;6.70;99.20;;;;;;5001313;28;20018;-84
2023/03/16 06:44:53;;;;;;;9.23;3.70;;;6.80;99.00;;;;;;4996824;28;20105;-83
2023/03/16 06:47:19;;;;;;;7.47;3.40;;;6.80;99.00;;;;;;4998313;28;20101;-83
2023/03/16 06:49:45;;;;;;;7.63;3.60;;;6.70;99.00;;;;;;4982548;28;20038;-83
2023/03/16 06:52:12;;;;;;;9.27;3.15;;;6.70;99.00;;;;;;4982856;28;20176;-84
2023/03/16 06:54:39;;;;;;;6.40;3.10;;;6.80;99.10;;;;;;5002544;28;20057;-83
2023/03/16 06:57:05;;;;;;;8.77;3.75;;;6.90;99.00;;;;;;4980590;28;20674;-83
2023/03/16 06:59:31;;;;;;;9.93;3.80;;;7.00;98.90;;;;;;4998136;28;20033;-83
2023/03/16 07:01:57;;;;;;;5.50;3.35;;;7.10;98.90;;;;;;4998204;28;20033;-83
2023/03/16 07:04:22;;;;;;;11.57;4.10;;;7.20;98.80;;;;;;4985760;28;20048;-84
2023/03/16 07:06:51;;;;;;;5.50;4.15;;;7.20;98.70;;;;;;4998055;28;20033;-83
2023/03/16 07:09:20;;;;;;;12.85;4.53;;;7.20;98.80;;;;;;4981936;28;20486;-82
2023/03/16 07:11:46;;;;;;;9.73;4.22;;;7.20;98.90;;;;;;4979855;28;20646;-83
2023/03/16 07:14:12;;;;;;;6.65;3.92;;;7.30;99.10;;;;;;4996849;28;20021;-83
2023/03/16 07:16:37;;;;;;;10.48;4.10;;;7.40;98.80;;;;;;5003660;28;20037;-82
2023/03/16 07:19:03;;;;;;;7.40;3.65;;;7.30;98.90;;;;;;4987927;28;20442;-83
2023/03/16 07:21:30;;;;;;;7.10;4.35;;;7.30;98.80;;;;;;4980842;28;21096;-83
2023/03/16 07:23:56;;;;;;;8.77;4.20;;;7.30;98.80;;;;;;4997465;28;20812;-83
2023/03/16 07:26:22;;;;;;;12.27;4.13;;;7.30;98.80;;;;;;4981012;28;20679;-83
2023/03/16 07:28:47;;;;;;;5.93;3.80;;;7.40;98.90;;;;;;4979458;28;20128;-83
2023/03/16 07:31:13;;;;;;;9.48;3.88;;;7.40;98.90;;;;;;4997561;28;20493;-83
2023/03/16 07:33:39;;;;;;;15.48;4.80;;;7.40;98.90;;;;;;4981421;28;20054;-83
2023/03/16 07:36:05;;;;;;;6.78;3.80;;;7.40;98.80;;;;;;4980980;28;20546;-83
2023/03/16 07:38:32;;;;;;;9.52;3.75;;;7.40;98.80;;;;;;4979386;28;20030;-84
2023/03/16 07:40:59;;;;;;;16.70;4.28;;;7.60;99.00;;;;;;4997602;28;20026;-84
2023/03/16 07:43:25;;;;;;;8.00;3.58;;;7.60;98.60;;;;;;4997793;28;20026;-84
2023/03/16 07:45:51;;;;;;;11.25;4.03;;;7.60;98.80;;;;;;4982653;28;20057;-84
2023/03/16 07:48:18;;;;;;;10.35;4.80;;;7.60;98.80;;;;;;4980273;28;20033;-83
2023/03/16 07:50:46;;;;;;;11.77;4.40;;;7.60;98.80;;;;;;4980236;28;20024;-84
2023/03/16 07:53:14;;;;;;;9.30;4.28;;;7.70;98.80;;;;;;4982494;28;20501;-83
2023/03/16 07:55:41;;;;;;;11.70;4.53;;;7.70;98.90;;;;;;4977788;28;20026;-83
2023/03/16 07:58:06;;;;;;;7.00;4.15;;;7.80;99.20;;;;;;4980771;28;20054;-84
2023/03/16 08:00:32;;;;;;;10.35;4.38;;;7.70;98.90;;;;;;4979271;28;20455;-84
2023/03/16 08:02:58;;;;;;;9.15;4.18;;;7.70;99.20;;;;;;4978603;28;20493;-84
2023/03/16 08:05:24;;;;;;;9.63;4.43;;;7.70;99.20;;;;;;4981792;28;20037;-82
2023/03/16 08:07:50;;;;;;;7.80;4.32;;;7.60;99.60;;;;;;4983890;28;20637;-82
2023/03/16 08:10:17;;;;;;;9.95;4.60;;;7.60;99.40;;;;;;5016967;28;20038;-82
2023/03/16 08:12:43;;;;;;;10.38;4.13;;;7.70;99.90;;;;;;4980699;28;20029;-82
2023/03/16 08:15:09;;;;;;;7.97;4.30;;;7.60;99.90;;;;;;4985987;28;20029;-82
2023/03/16 08:17:35;;;;;;;11.77;4.47;;;7.70;99.90;;;;;;5003167;28;20026;-83
2023/03/16 08:20:07;;;;;;;11.13;4.97;;;7.80;99.90;;;;;;5021297;28;20160;-83
2023/03/16 08:22:35;;;;;;;11.45;4.82;;;7.80;99.90;;;;;;5021690;28;20029;-84
2023/03/16 08:25:02;;;;;;;9.95;5.05;;;7.70;99.90;;;;;;5021924;28;20011;-83
2023/03/16 08:27:28;;;;;;;8.98;4.90;;;7.80;99.90;;;;;;5004527;28;20046;-82
2023/03/16 08:29:54;;;;;;;7.97;4.88;;;7.80;99.90;;;;;;5006379;28;20030;-84
2023/03/16 08:32:20;;;;;;;8.63;4.93;;;7.70;99.90;;;;;;5003393;28;20033;-82
2023/03/16 08:34:46;;;;;;;8.43;4.65;;;7.70;99.90;;;;;;4999736;28;20037;-83
2023/03/16 08:37:13;;;;;;;10.23;4.68;;;7.70;99.90;;;;;;5003523;28;20022;-84
2023/03/16 08:39:42;;;;;;;9.07;4.43;;;7.70;99.90;;;;;;4999441;28;20029;-81
2023/03/16 08:42:09;;;;;;;7.78;5.40;;;7.70;99.90;;;;;;4998690;28;20105;-81
2023/03/16 08:44:35;;;;;;;11.98;5.10;;;7.70;99.90;;;;;;4986023;28;21309;-82
2023/03/16 08:47:04;;;;;;;9.75;4.68;;;7.70;99.90;;;;;;5004565;28;20032;-82
2023/03/16 08:49:30;;;;;;;18.67;4.82;;;7.60;99.90;;;;;;4987072;28;20038;-82
2023/03/16 08:51:56;;;;;;;6.90;4.05;;;7.70;99.90;;;;;;5004392;28;20075;-82
2023/03/16 08:54:21;;;;;;;7.85;4.60;;;7.60;99.90;;;;;;5001991;28;20026;-81
2023/03/16 08:56:47;;;;;;;9.82;4.57;;;7.60;99.90;;;;;;5004486;28;20186;-81
2023/03/16 08:59:15;;;;;;;9.15;4.80;;;7.70;99.90;;;;;;5003372;28;20030;-81
2023/03/16 09:01:41;;;;;;;9.90;4.82;;;7.80;99.90;;;;;;4986297;28;20033;-82
2023/03/16 09:04:07;;;;;;;9.63;4.65;;;7.80;99.90;;;;;;5000877;28;20477;-82
2023/03/16 09:06:32;;;;;;;11.18;5.25;;;7.90;99.90;;;;;;4985216;28;20049;-81
2023/03/16 09:09:00;;;;;;;4.95;4.22;;;8.00;99.90;;;;;;4986378;28;20091;-82
2023/03/16 09:11:29;;;;;;;12.27;4.53;;;8.10;99.90;;;;;;4988884;28;20065;-81
2023/03/16 09:13:55;;;;;;;8.13;5.18;;;8.20;99.90;;;;;;4988629;28;20022;-82
2023/03/16 09:16:24;;;;;;;13.38;4.80;;;8.40;99.90;;;;;;5009721;28;20018;-82
2023/03/16 09:18:50;;;;;;;8.52;4.25;;;8.60;99.90;;;;;;5012772;28;20076;-81
2023/03/16 09:21:17;;;;;;;8.65;4.13;;;8.60;99.90;;;;;;4990978;28;20022;-82
2023/03/16 09:23:43;;;;;;;15.60;5.13;;;8.70;99.90;;;;;;4988481;28;20025;-82
2023/03/16 09:26:11;;;;;;;9.68;5.10;;;8.80;99.90;;;;;;4988163;28;20096;-82
2023/03/16 09:28:40;;;;;;;12.23;4.22;;;8.80;99.90;;;;;;5003268;28;20133;-82
2023/03/16 09:31:14;;;;;;;12.55;4.60;;;8.70;99.90;;;;;;5004318;28;20064;-82
2023/03/16 09:33:39;;;;;;;9.88;5.22;;;8.70;99.90;;;;;;4988247;28;20074;-82
2023/03/16 09:36:05;;;;;;;9.80;5.07;;;8.80;99.90;;;;;;4984413;28;20033;-82
2023/03/16 09:38:31;;;;;;;11.45;5.00;;;8.80;99.90;;;;;;5004389;28;20053;-82
2023/03/16 09:41:05;;;;;;;11.27;4.93;;;8.90;99.90;;;;;;5003911;28;20044;-81
2023/03/16 09:44:29;;;;;;;7.35;4.28;;;8.80;99.90;;;;;;4991037;28;20078;-82
2023/03/16 09:47:00;;;;;;;10.35;4.82;;;8.70;99.90;;;;;;4962991;28;20405;-83
2023/03/16 09:49:30;;;;;;;9.15;4.90;;;8.80;99.90;;;;;;5002682;28;20089;-83
2023/03/16 09:52:15;;;;;;;16.02;4.85;;;8.90;99.90;;;;;;4985383;28;20030;-83
2023/03/16 09:55:09;;;;;;;8.38;4.82;;;8.80;99.90;;;;;;5002439;28;20021;-82
2023/03/16 09:57:40;;;;;;;8.80;4.32;;;8.90;99.90;;;;;;4984706;28;20060;-82
2023/03/16 10:00:29;;;;;;;13.48;5.30;;;8.90;99.90;;;;;;4984349;28;20069;-83
2023/03/16 10:03:17;;;;;;;11.00;4.63;;;8.90;99.90;;;;;;4981970;28;20036;-82
2023/03/16 10:05:44;;;;;;;8.98;4.72;;;9.10;99.90;;;;;;4979377;28;20026;-83
2023/03/16 10:08:15;;;;;;;12.73;5.00;;;9.20;99.90;;;;;;4982479;28;20463;-83
2023/03/16 10:10:47;;;;;;;11.88;4.70;;;9.30;99.90;;;;;;4984367;28;20073;-83
2023/03/16 10:13:35;;;;;;;14.60;4.18;;;9.40;99.90;;;;;;4998290;28;20491;-82
2023/03/16 10:16:08;;;;;;;12.57;4.35;;;9.40;99.90;;;;;;4999832;28;20030;-82
2023/03/16 10:18:47;;;;;;;10.88;4.65;;;9.40;99.90;;;;;;4980887;28;20490;-83
2023/03/16 10:21:17;;;;;;;8.32;3.88;;;9.40;99.90;;;;;;4981118;28;20076;-83
2023/03/16 10:23:45;;;;;;;10.88;4.20;;;9.50;99.90;;;;;;4984277;28;21069;-83
2023/03/16 10:26:23;;;;;;;9.23;4.07;;;9.50;99.90;;;;;;5000945;28;20021;-83
2023/03/16 10:28:53;;;;;;;8.60;4.47;;;9.70;99.90;;;;;;4998412;28;20029;-83
2023/03/16 10:31:21;;;;;;;7.88;4.28;;;9.80;99.90;;;;;;4983999;28;20386;-82
2023/03/16 10:33:54;;;;;;;9.05;4.63;;;9.80;99.90;;;;;;5002850;28;20030;-83
2023/03/16 10:36:41;;;;;;;8.13;4.50;;;10.00;99.90;;;;;;4982312;28;20025;-83
2023/03/16 10:39:12;;;;;;;8.43;4.32;;;10.20;99.90;;;;;;4983800;28;20087;-82
2023/03/16 10:41:44;;;;;;;9.38;3.90;;;10.30;99.20;;;;;;4987614;28;20025;-83
2023/03/16 10:44:18;;;;;;;9.90;3.90;;;10.40;98.40;;;;;;4988255;28;20025;-83
2023/03/16 10:46:47;;;;;;;6.93;3.78;;;10.50;98.10;;;;;;4989172;28;20026;-83
2023/03/16 10:49:40;;;;;;;7.80;4.22;;;10.60;97.70;;;;;;4986395;28;20038;-83
2023/03/16 10:52:43;;;;;;;7.80;4.25;;;10.80;97.50;;;;;;4993125;28;20470;-83
2023/03/16 10:55:21;;;;;;;9.25;3.47;;;11.00;97.20;;;;;;4983517;28;20030;-83
2023/03/16 10:57:53;;;;;;;6.82;3.47;;;11.10;96.90;;;;;;5003334;28;20025;-83
2023/03/16 11:00:21;;;;;;;5.75;3.58;;;11.00;95.70;;;;;;5000875;28;20014;-83
2023/03/16 11:02:48;;;;;;;12.82;3.80;;;11.30;95.50;;;;;;4982512;28;20049;-83
2023/03/16 11:05:17;;;;;;;6.10;3.53;;;11.50;95.50;;;;;;4982175;28;20104;-83
2023/03/16 11:07:53;;;;;;;5.40;3.30;;;12.10;94.90;;;;;;4999065;28;20482;-82
2023/03/16 11:10:33;;;;;;;9.00;3.38;;;12.40;93.40;;;;;;4997249;28;20393;-83
2023/03/16 11:13:19;;;;;;;6.10;3.08;;;12.70;93.00;;;;;;4981871;28;20034;-84
2023/03/16 11:15:48;;;;;;;6.05;3.05;;;12.70;92.20;;;;;;4981648;28;20030;-83
2023/03/16 11:18:42;;;;;;;9.88;3.50;;;12.90;92.20;;;;;;4999253;28;20026;-83
2023/03/16 11:21:35;;;;;;;8.38;3.65;;;12.90;91.60;;;;;;4979626;28;20485;-83
2023/03/16 11:24:03;;;;;;;10.60;3.63;;;13.10;91.60;;;;;;4955601;28;20034;-83
2023/03/16 11:26:41;;;;;;;5.60;2.72;;;13.10;91.40;;;;;;4980419;28;20588;-84
2023/03/16 11:29:25;;;;;;;4.80;2.70;;;13.30;91.30;;;;;;4982261;28;20059;-83
2023/03/16 11:31:56;;;;;;;6.28;3.03;;;13.70;90.30;;;;;;4981000;28;20121;-83
2023/03/16 11:34:27;;;;;;;8.98;2.97;;;14.10;89.90;;;;;;4998082;28;20371;-82
2023/03/16 11:37:11;;;;;;;5.13;2.65;;;14.30;86.50;;;;;;4982667;28;20026;-82
2023/03/16 11:39:52;;;;;;;4.30;2.58;;;14.20;85.20;;;;;;4980934;28;20029;-82
2023/03/16 11:42:39;;;;;;;8.90;2.97;;;14.10;84.80;;;;;;4998397;28;20022;-84
2023/03/16 11:45:20;;;;;;;4.70;2.40;;;14.10;85.30;;;;;;4992469;28;20057;-82
2023/03/16 11:48:27;;;;;;;5.70;2.63;;;14.30;85.30;;;;;;4982979;28;20402;-83
2023/03/16 11:51:01;;;;;;;7.55;2.60;;;14.60;83.30;;;;;;4920475;28;20567;-82
2023/03/16 11:53:32;;;;;;;6.70;2.60;;;14.90;80.40;;;;;;4991544;28;20042;-82
2023/03/16 11:56:13;;;;;;;7.18;2.78;;;14.80;81.40;;;;;;4980041;28;20462;-81
2023/03/16 11:59:24;;;;;;;5.93;3.38;;;14.70;77.40;;;;;;4992663;28;20113;-83
2023/03/16 12:01:57;;;;;;;5.05;2.63;;;14.30;78.20;;;;;;4992759;28;20052;-78
2023/03/16 12:04:41;;;;;;;;;;;14.10;78.60;;;;;;4989033;28;20437;-80
2023/03/16 12:07:38;;;;;;;5.07;3.00;;;13.80;79.00;;;;;;4995802;28;19960;-82
2023/03/16 12:10:25;;;;;;;5.70;3.08;;;13.50;81.40;;;;;;4994320;28;20069;-82
2023/03/16 12:13:09;;;;;;;10.25;3.63;;;13.50;82.80;;;;;;4995979;28;20025;-82
2023/03/16 12:15:43;;;;;;;6.97;3.50;;;13.40;83.30;;;;;;4986606;28;20040;-83
2023/03/16 12:18:12;;;;;;;6.70;3.10;;;13.20;82.30;;;;;;4978550;28;20126;-82
2023/03/16 12:20:53;;;;;;;4.63;2.83;;;13.20;83.20;;;;;;4991602;28;20088;-84
2023/03/16 12:23:25;;;;;;;5.95;2.85;;;13.10;83.70;;;;;;4990573;28;20020;-83
2023/03/16 12:25:52;;;;;;;5.68;2.97;;;13.10;84.20;;;;;;4990368;28;20097;-82
2023/03/16 12:28:27;;;;;;;5.20;3.25;;;13.10;83.30;;;;;;4974900;28;20038;-83
2023/03/16 12:31:08;;;;;;;11.95;3.50;;;13.10;82.50;;;;;;4984447;28;20053;-84
2023/03/16 12:33:46;;;;;;;4.45;3.05;;;12.70;82.60;;;;;;4977253;28;20076;-83
2023/03/16 12:36:17;;;;;;;5.97;3.08;;;12.90;82.90;;;;;;4991982;28;20041;-83
2023/03/16 12:38:46;;;;;;;5.82;2.55;;;12.90;83.80;;;;;;4993679;28;20068;-82
2023/03/16 12:41:30;;;;;;;5.43;2.58;;;13.10;84.30;;;;;;4993686;28;20022;-83
2023/03/16 12:44:30;;;;;;;5.50;3.25;;;13.20;83.40;;;;;;4980882;28;20320;-79
2023/03/16 12:47:11;;;;;;;4.10;2.58;;;13.40;82.80;;;;;;5127228;22;20577;-82
2023/03/16 12:49:38;;;;;;;7.25;3.55;;;13.40;82.30;;;;;;4991884;28;20042;-81
2023/03/16 12:52:13;;;;;;;8.02;2.60;;;13.40;83.20;;;;;;4980068;28;20036;-83
2023/03/16 12:55:11;;;;;;;6.15;2.65;;;13.50;81.80;;;;;;4995786;28;20080;-82
2023/03/16 12:57:39;;;;;;;10.50;2.75;;;13.50;80.20;;;;;;4993137;28;20029;-82
2023/03/16 13:00:08;;;;;;;6.93;2.42;;;13.60;79.70;;;;;;4984540;28;20018;-80
2023/03/16 13:02:38;;;;;;;3.47;2.40;;;13.80;80.20;;;;;;4995752;28;20337;-82
2023/03/16 13:05:16;;;;;;;8.25;2.47;;;13.90;79.50;;;;;;4981137;28;20040;-81
2023/03/16 13:08:05;;;;;;;5.07;2.40;;;14.10;79.40;;;;;;4983289;28;20021;-82
2023/03/16 13:10:32;;;;;;;6.70;2.60;;;14.50;78.60;;;;;;4991292;28;20088;-82